Time;durP1;ratioP1;P1;durP2;ratioP2;P2;SDS_P1;SDS_P2;PMS_P1;PMS_P2;Temp;Humidity;BMP_temperature;BMP_pressure;BME280_temperature;BME280_humidity;BME280_pressure;Samples;Min_cycle;Max_cycle;Signal;HPM_P1;HPM_P2
2022/11/11 00:01:15;;;;;;;13.77;8.52;;;6.60;99.90;;;;;;5072732;28;20050;-77
2022/11/11 00:03:42;;;;;;;14.95;8.60;;;6.50;99.90;;;;;;5069465;28;20029;-78
2022/11/11 00:06:13;;;;;;;20.60;9.52;;;6.50;99.90;;;;;;5068312;28;20060;-78
2022/11/11 00:08:39;;;;;;;15.30;8.18;;;6.50;99.90;;;;;;5073019;28;20033;-78
2022/11/11 00:11:07;;;;;;;18.55;8.68;;;6.50;99.90;;;;;;5073660;28;20481;-77
2022/11/11 00:13:33;;;;;;;13.30;7.80;;;6.40;99.90;;;;;;5068773;28;20027;-79
2022/11/11 00:16:08;;;;;;;15.52;8.63;;;6.40;99.90;;;;;;5071819;28;20029;-79
2022/11/11 00:27:06;;;;;;;15.85;8.93;;;6.20;99.90;;;;;;5068511;28;20055;-80
2022/11/11 00:29:36;;;;;;;14.77;9.40;;;6.20;99.90;;;;;;5071361;28;20051;-79
2022/11/11 00:37:44;;;;;;;17.42;8.27;;;6.20;99.90;;;;;;5067309;28;20181;-78
2022/11/11 00:40:11;;;;;;;11.82;8.13;;;6.20;99.90;;;;;;5072297;28;20485;-78
2022/11/11 00:42:37;;;;;;;15.40;8.57;;;6.20;99.90;;;;;;5069504;28;20070;-77
2022/11/11 00:45:07;;;;;;;11.63;7.70;;;6.20;99.90;;;;;;5070741;28;20051;-79
2022/11/11 00:53:34;;;;;;;12.73;7.75;;;6.00;99.90;;;;;;5075197;28;20042;-79
2022/11/11 00:55:59;;;;;;;14.65;8.05;;;6.00;99.90;;;;;;5070161;28;20047;-79
2022/11/11 00:58:27;;;;;;;13.75;8.32;;;6.00;99.90;;;;;;5067792;28;20029;-78
2022/11/11 01:00:55;;;;;;;15.82;9.02;;;5.90;99.90;;;;;;5065581;28;20037;-77
2022/11/11 01:03:27;;;;;;;22.75;9.45;;;5.90;99.90;;;;;;5067936;28;20056;-78
2022/11/11 01:05:52;;;;;;;15.50;7.82;;;5.90;99.90;;;;;;5062642;28;20433;-78
2022/11/11 01:08:18;;;;;;;12.00;6.40;;;5.90;99.90;;;;;;5071630;28;20028;-78
2022/11/11 01:10:45;;;;;;;12.32;6.60;;;5.90;99.90;;;;;;5068606;28;20029;-79
2022/11/11 01:13:28;;;;;;;11.45;6.65;;;5.90;99.90;;;;;;5067579;28;20021;-79
2022/11/11 01:16:05;;;;;;;14.75;6.65;;;5.90;99.90;;;;;;5070023;28;20028;-79
2022/11/11 01:18:31;;;;;;;10.32;6.30;;;5.80;99.90;;;;;;5084984;22;20557;-77
2022/11/11 01:21:21;;;;;;;13.32;6.80;;;5.90;99.90;;;;;;5046967;28;20044;-75
2022/11/11 01:23:48;;;;;;;13.70;6.43;;;5.80;99.90;;;;;;5048032;28;20021;-74
2022/11/11 01:26:20;;;;;;;10.32;6.82;;;5.80;99.90;;;;;;5045498;28;20071;-75
2022/11/11 01:28:52;;;;;;;11.43;6.72;;;5.80;99.90;;;;;;5043635;28;20102;-75
2022/11/11 01:31:20;;;;;;;14.82;6.60;;;5.80;99.90;;;;;;5040630;28;20702;-75
2022/11/11 01:33:46;;;;;;;16.20;7.43;;;5.80;99.90;;;;;;5042698;28;20031;-74
2022/11/11 01:36:21;;;;;;;17.60;6.45;;;5.80;99.90;;;;;;5042034;28;20053;-74
2022/11/11 01:38:52;;;;;;;11.20;5.95;;;5.80;99.90;;;;;;5039239;28;20037;-75
2022/11/11 01:41:37;;;;;;;11.57;5.45;;;5.70;99.90;;;;;;5045172;28;20045;-75
2022/11/11 01:44:18;;;;;;;;;;;5.70;99.90;;;;;;5044538;28;20532;-75
2022/11/11 01:47:04;;;;;;;11.10;5.70;;;5.70;99.90;;;;;;5045190;28;19913;-74
2022/11/11 01:49:35;;;;;;;10.10;6.03;;;5.80;99.90;;;;;;5045719;28;20071;-74
2022/11/11 01:52:07;;;;;;;13.55;7.00;;;5.70;99.90;;;;;;5044409;28;20031;-75
2022/11/11 01:54:42;;;;;;;10.48;6.18;;;5.70;99.90;;;;;;5044143;28;20025;-74
2022/11/11 01:57:45;;;;;;;12.23;6.07;;;5.60;99.90;;;;;;5046425;28;20021;-75
2022/11/11 02:00:13;;;;;;;10.80;6.25;;;5.60;99.90;;;;;;5044124;28;20041;-75
2022/11/11 02:02:45;;;;;;;9.32;6.07;;;5.60;99.90;;;;;;5043190;28;20041;-75
2022/11/11 02:08:01;;;;;;;11.95;6.30;;;5.50;99.90;;;;;;5045680;28;20037;-75
2022/11/11 02:10:32;;;;;;;10.15;6.07;;;5.50;99.90;;;;;;5047266;28;20041;-75
2022/11/11 02:15:41;;;;;;;;;;;5.40;99.90;;;;;;5047848;28;20509;-75
2022/11/11 02:18:07;;;;;;;11.98;5.57;;;5.40;99.90;;;;;;5044084;28;19904;-75
2022/11/11 02:20:44;;;;;;;10.35;6.15;;;5.40;99.90;;;;;;5045477;28;20087;-74
2022/11/11 02:23:43;;;;;;;12.75;6.50;;;5.40;99.90;;;;;;5046739;28;20469;-75
2022/11/11 02:26:13;;;;;;;10.07;6.65;;;5.40;99.90;;;;;;5042016;28;20025;-75
2022/11/11 02:28:41;;;;;;;12.05;6.78;;;5.30;99.90;;;;;;5046599;28;20032;-75
2022/11/11 02:31:08;;;;;;;12.90;6.32;;;5.40;99.90;;;;;;5043645;28;20029;-75
2022/11/11 02:33:34;;;;;;;13.25;6.45;;;5.40;99.90;;;;;;5044242;28;20258;-75
2022/11/11 02:36:04;;;;;;;11.15;6.00;;;5.30;99.90;;;;;;5049849;28;20032;-75
2022/11/11 02:38:30;;;;;;;12.02;6.93;;;5.30;99.90;;;;;;5037917;28;20033;-75
2022/11/11 02:43:41;;;;;;;13.73;7.57;;;5.30;99.90;;;;;;5045699;28;20107;-75
2022/11/11 02:46:09;;;;;;;14.73;8.57;;;5.30;99.90;;;;;;5042373;28;20040;-75
2022/11/11 02:48:44;;;;;;;14.02;8.07;;;5.30;99.90;;;;;;5040890;28;20546;-75
2022/11/11 02:51:09;;;;;;;15.02;8.05;;;5.20;99.90;;;;;;5049924;28;20052;-75
2022/11/11 02:53:35;;;;;;;14.27;7.72;;;5.20;99.90;;;;;;5040882;28;20079;-74
2022/11/11 02:56:01;;;;;;;18.10;8.57;;;5.20;99.90;;;;;;5045009;28;20037;-74
2022/11/11 02:58:27;;;;;;;22.95;9.40;;;5.10;99.90;;;;;;5043977;28;20040;-75
2022/11/11 03:00:52;;;;;;;16.13;8.45;;;5.10;99.90;;;;;;5046441;28;20064;-74
2022/11/11 03:03:21;;;;;;;15.45;8.32;;;5.10;99.90;;;;;;5043447;28;20490;-74
2022/11/11 03:05:46;;;;;;;12.85;7.63;;;5.00;99.90;;;;;;5042608;28;20092;-74
2022/11/11 03:08:24;;;;;;;15.60;9.07;;;5.00;99.90;;;;;;5049519;28;20124;-74
2022/11/11 03:10:52;;;;;;;13.18;8.30;;;5.00;99.90;;;;;;5046366;28;20036;-74
2022/11/11 03:13:21;;;;;;;11.52;7.07;;;5.00;99.90;;;;;;5045799;28;20032;-75
2022/11/11 03:15:50;;;;;;;11.18;6.00;;;5.00;99.90;;;;;;5046145;28;20129;-75
2022/11/11 03:18:18;;;;;;;11.43;7.03;;;5.00;99.90;;;;;;5044265;28;20065;-75
2022/11/11 03:23:28;;;;;;;14.35;6.57;;;5.00;99.90;;;;;;5042246;28;20132;-77
2022/11/11 03:25:54;;;;;;;12.65;6.63;;;5.00;99.90;;;;;;5046980;28;20108;-76
2022/11/11 03:28:20;;;;;;;12.25;6.72;;;4.90;99.90;;;;;;5042170;28;20041;-76
2022/11/11 03:30:49;;;;;;;14.35;6.50;;;4.90;99.90;;;;;;5044161;28;20028;-75
2022/11/11 03:33:21;;;;;;;10.95;6.47;;;4.90;99.90;;;;;;5058503;28;20394;-75
2022/11/11 03:35:47;;;;;;;11.40;6.00;;;4.90;99.90;;;;;;5041459;28;20047;-76
2022/11/11 03:38:23;;;;;;;14.57;7.97;;;4.90;99.90;;;;;;5041034;28;20029;-75
2022/11/11 03:40:52;;;;;;;13.55;7.57;;;4.90;99.90;;;;;;5046889;28;20060;-74
2022/11/11 03:43:29;;;;;;;14.15;7.75;;;4.80;99.90;;;;;;5044782;28;20028;-75
2022/11/11 03:45:57;;;;;;;13.10;7.47;;;4.80;99.90;;;;;;5045497;28;20429;-74
2022/11/11 03:48:28;;;;;;;14.32;7.35;;;4.80;99.90;;;;;;5044702;28;20625;-74
2022/11/11 03:50:54;;;;;;;14.27;7.55;;;4.80;99.90;;;;;;5048045;28;20025;-75
2022/11/11 03:53:20;;;;;;;12.52;7.43;;;4.80;99.90;;;;;;5050908;28;20031;-74
2022/11/11 03:55:46;;;;;;;14.13;7.70;;;4.70;99.90;;;;;;5045210;28;20058;-75
2022/11/11 03:58:12;;;;;;;17.05;8.40;;;4.80;99.90;;;;;;5040270;28;20482;-76
2022/11/11 04:00:43;;;;;;;12.38;7.45;;;4.70;99.90;;;;;;5035910;28;20040;-76
2022/11/11 04:11:30;;;;;;;13.20;6.95;;;4.70;99.90;;;;;;5041395;28;20532;-76
2022/11/11 04:16:47;;;;;;;14.65;7.22;;;4.70;99.90;;;;;;5043888;28;20090;-76
2022/11/11 04:22:03;;;;;;;10.95;5.97;;;4.70;99.90;;;;;;5044162;28;20079;-76
2022/11/11 04:27:25;;;;;;;17.88;8.73;;;4.60;99.90;;;;;;5050196;28;20120;-76
2022/11/11 04:29:53;;;;;;;14.57;8.15;;;4.70;99.90;;;;;;5042008;28;20059;-76
2022/11/11 04:32:39;;;;;;;16.42;8.57;;;4.70;99.90;;;;;;5042704;28;20056;-76
2022/11/11 04:35:07;;;;;;;18.08;10.05;;;4.70;99.90;;;;;;5041155;28;20143;-76
2022/11/11 04:37:45;;;;;;;17.13;8.48;;;4.70;99.90;;;;;;5044899;28;20048;-76
2022/11/11 04:43:04;;;;;;;17.00;8.38;;;4.70;99.90;;;;;;5045558;28;20036;-76
2022/11/11 04:45:35;;;;;;;23.90;8.65;;;4.70;99.90;;;;;;5041702;28;20025;-76
2022/11/11 04:48:14;;;;;;;18.55;9.65;;;4.70;99.90;;;;;;5044577;28;20017;-75
2022/11/11 04:50:42;;;;;;;15.57;8.60;;;4.70;99.90;;;;;;5045247;28;20029;-75
2022/11/11 04:53:10;;;;;;;13.35;7.40;;;4.70;99.90;;;;;;5045788;28;20183;-75
2022/11/11 04:58:32;;;;;;;15.50;7.72;;;4.60;99.90;;;;;;5030972;28;20536;-75
2022/11/11 05:01:07;;;;;;;15.65;8.32;;;4.60;99.90;;;;;;5026259;28;20047;-76
2022/11/11 05:03:33;;;;;;;12.35;6.55;;;4.50;99.90;;;;;;5029264;28;20622;-76
2022/11/11 05:09:00;;;;;;;9.48;6.07;;;4.50;99.90;;;;;;5026186;28;20060;-76
2022/11/11 05:11:28;;;;;;;15.55;7.30;;;4.50;99.90;;;;;;5025027;28;20025;-76
2022/11/11 05:22:34;;;;;;;13.65;7.88;;;4.40;99.90;;;;;;5030550;28;20398;-76
2022/11/11 05:27:44;;;;;;;17.40;8.07;;;4.30;99.90;;;;;;5024644;28;20036;-76
2022/11/11 05:30:12;;;;;;;13.52;7.18;;;4.30;99.90;;;;;;5022246;28;20030;-76
2022/11/11 05:32:38;;;;;;;12.57;7.05;;;4.30;99.90;;;;;;5020180;28;20033;-75
2022/11/11 05:35:14;;;;;;;13.68;7.55;;;4.30;99.90;;;;;;5026829;28;20045;-75
2022/11/11 05:37:40;;;;;;;10.65;6.38;;;4.40;99.90;;;;;;5019735;28;20572;-75
2022/11/11 05:40:10;;;;;;;13.15;7.32;;;4.40;99.90;;;;;;5016917;28;20083;-75
2022/11/11 05:42:40;;;;;;;12.98;7.15;;;4.30;99.90;;;;;;5027682;28;20485;-76
2022/11/11 05:45:07;;;;;;;11.70;6.43;;;4.40;99.90;;;;;;5024541;28;20549;-75
2022/11/11 05:47:32;;;;;;;9.45;6.60;;;4.40;99.90;;;;;;5027537;28;20030;-75
2022/11/11 05:50:01;;;;;;;11.93;6.07;;;4.40;99.90;;;;;;5028171;28;20025;-75
2022/11/11 05:52:27;;;;;;;12.52;6.38;;;4.40;99.90;;;;;;5024146;28;20116;-75
2022/11/11 05:55:01;;;;;;;9.40;5.47;;;4.40;99.90;;;;;;5024810;28;20494;-75
2022/11/11 05:57:39;;;;;;;13.82;6.63;;;4.50;99.90;;;;;;5024499;28;20029;-76
2022/11/11 06:00:15;;;;;;;13.02;6.63;;;4.50;99.90;;;;;;5026604;28;20113;-75
2022/11/11 06:02:40;;;;;;;13.25;6.15;;;4.50;99.90;;;;;;5027018;28;20026;-76
2022/11/11 06:05:07;;;;;;;12.25;7.40;;;4.50;99.90;;;;;;5027930;28;20029;-75
2022/11/11 06:07:36;;;;;;;9.73;6.00;;;4.50;99.90;;;;;;5022891;28;20025;-76
2022/11/11 06:10:29;;;;;;;13.88;6.80;;;4.50;99.90;;;;;;5024764;28;20125;-75
2022/11/11 06:13:08;;;;;;;9.63;6.65;;;4.50;99.90;;;;;;5024603;28;20104;-76
2022/11/11 06:15:38;;;;;;;10.93;6.65;;;4.40;99.90;;;;;;5026209;28;20053;-76
2022/11/11 06:18:05;;;;;;;14.80;6.18;;;4.40;99.90;;;;;;5027089;28;20486;-76
2022/11/11 06:20:34;;;;;;;13.10;7.20;;;4.40;99.90;;;;;;5025563;28;20025;-76
2022/11/11 06:23:01;;;;;;;14.57;6.88;;;4.30;99.90;;;;;;5026570;28;20029;-76
2022/11/11 06:28:14;;;;;;;10.63;6.80;;;4.30;99.90;;;;;;5026012;28;20105;-78
2022/11/11 06:30:40;;;;;;;15.25;7.75;;;4.30;99.90;;;;;;5031521;28;20041;-77
2022/11/11 06:33:09;;;;;;;13.27;7.32;;;4.30;99.90;;;;;;5028995;28;20037;-75
2022/11/11 06:35:35;;;;;;;14.60;7.55;;;4.30;99.90;;;;;;5024929;28;20017;-76
2022/11/11 06:38:06;;;;;;;19.60;8.93;;;4.30;99.90;;;;;;5027929;28;20064;-77
2022/11/11 06:40:32;;;;;;;15.80;8.30;;;4.30;99.90;;;;;;5030190;28;20037;-75
2022/11/11 06:43:16;;;;;;;18.27;7.15;;;4.40;99.90;;;;;;5029454;28;20037;-75
2022/11/11 06:45:42;;;;;;;13.52;7.35;;;4.40;99.90;;;;;;5030031;28;20025;-75
2022/11/11 06:48:08;;;;;;;17.35;8.65;;;4.40;99.90;;;;;;5030307;28;20034;-76
2022/11/11 06:50:34;;;;;;;15.43;8.27;;;4.40;99.90;;;;;;5027645;28;20390;-76
2022/11/11 06:53:11;;;;;;;11.98;7.95;;;4.40;99.90;;;;;;5028452;28;20159;-76
2022/11/11 06:55:37;;;;;;;12.55;8.10;;;4.40;99.90;;;;;;5029574;28;20026;-76
2022/11/11 06:58:10;;;;;;;14.77;8.15;;;4.40;99.90;;;;;;5030294;28;20032;-76
2022/11/11 07:00:42;;;;;;;15.70;8.95;;;4.50;99.90;;;;;;5030121;28;20032;-76
2022/11/11 07:03:10;;;;;;;15.45;8.55;;;4.50;99.90;;;;;;5030574;28;20091;-76
2022/11/11 07:05:35;;;;;;;17.50;8.25;;;4.50;99.90;;;;;;5035580;28;20021;-76
2022/11/11 07:08:07;;;;;;;15.52;8.57;;;4.50;99.90;;;;;;5029076;28;20040;-76
2022/11/11 07:10:34;;;;;;;24.15;9.18;;;4.60;99.90;;;;;;5032075;28;20350;-76
2022/11/11 07:13:00;;;;;;;16.05;8.40;;;4.60;99.90;;;;;;5027508;28;20060;-75
2022/11/11 07:15:29;;;;;;;16.58;8.50;;;4.60;99.90;;;;;;5029512;28;20029;-76
2022/11/11 07:17:55;;;;;;;14.63;8.93;;;4.60;99.90;;;;;;5033428;28;20061;-76
2022/11/11 07:20:27;;;;;;;17.85;8.45;;;4.70;99.90;;;;;;5028745;28;20063;-74
2022/11/11 07:22:53;;;;;;;16.63;8.73;;;4.70;99.90;;;;;;5028185;28;20124;-73
2022/11/11 07:25:18;;;;;;;16.52;8.98;;;4.80;99.90;;;;;;5034840;28;20033;-73
2022/11/11 07:27:44;;;;;;;17.83;8.30;;;4.80;99.90;;;;;;5033668;28;20019;-73
2022/11/11 07:30:11;;;;;;;15.85;9.15;;;4.90;99.90;;;;;;5031646;28;20025;-73
2022/11/11 07:32:44;;;;;;;17.27;9.63;;;4.90;99.90;;;;;;5033557;28;20029;-73
2022/11/11 07:35:10;;;;;;;20.33;10.20;;;4.90;99.90;;;;;;5030489;28;20026;-72
2022/11/11 07:37:39;;;;;;;17.02;9.05;;;4.90;99.90;;;;;;5031768;28;20044;-73
2022/11/11 07:40:10;;;;;;;14.93;8.30;;;5.00;99.90;;;;;;5031827;28;20032;-73
2022/11/11 07:42:37;;;;;;;17.00;8.98;;;5.00;99.90;;;;;;5024242;28;20030;-73
2022/11/11 07:45:04;;;;;;;18.08;9.60;;;5.10;99.90;;;;;;5034250;28;20017;-72
2022/11/11 07:47:35;;;;;;;17.63;9.43;;;5.10;99.90;;;;;;5030335;28;20021;-73
2022/11/11 07:50:03;;;;;;;18.77;9.52;;;5.20;99.90;;;;;;5032167;28;20028;-73
2022/11/11 07:52:28;;;;;;;14.88;9.07;;;5.20;99.90;;;;;;5020042;28;20106;-75
2022/11/11 07:54:55;;;;;;;16.95;9.18;;;5.20;99.90;;;;;;5030295;28;20112;-74
2022/11/11 07:57:20;;;;;;;13.95;8.55;;;5.30;99.90;;;;;;5029248;28;20040;-74
2022/11/11 07:59:46;;;;;;;17.00;8.35;;;5.40;99.90;;;;;;5026810;28;20033;-74
2022/11/11 08:02:12;;;;;;;15.48;8.15;;;5.40;99.90;;;;;;5025711;28;20382;-74
2022/11/11 08:04:38;;;;;;;21.98;8.48;;;5.50;99.90;;;;;;5027033;28;20114;-75
2022/11/11 08:07:04;;;;;;;17.45;8.52;;;5.50;99.90;;;;;;5033436;28;20475;-73
2022/11/11 08:09:36;;;;;;;18.90;9.02;;;5.50;99.90;;;;;;5026948;28;20486;-73
2022/11/11 08:14:52;;;;;;;11.93;7.00;;;5.70;99.90;;;;;;5034615;28;20493;-74
2022/11/11 08:17:18;;;;;;;11.70;7.32;;;5.70;99.90;;;;;;5033744;28;20021;-73
2022/11/11 08:19:52;;;;;;;14.52;6.82;;;5.80;99.90;;;;;;5034381;28;20441;-75
2022/11/11 08:22:24;;;;;;;11.52;6.80;;;5.80;99.90;;;;;;5027599;28;20165;-74
2022/11/11 08:24:50;;;;;;;12.30;7.40;;;5.90;99.90;;;;;;5019567;28;20022;-73
2022/11/11 08:27:15;;;;;;;15.35;6.65;;;6.00;99.90;;;;;;5035071;28;20036;-75
2022/11/11 08:29:44;;;;;;;12.10;6.53;;;6.00;99.90;;;;;;5032685;28;20017;-75
2022/11/11 08:32:12;;;;;;;11.52;7.32;;;6.00;99.90;;;;;;5023865;28;20037;-74
2022/11/11 08:34:44;;;;;;;13.10;7.70;;;6.10;99.90;;;;;;5033703;28;20493;-75
2022/11/11 08:37:15;;;;;;;12.60;6.68;;;6.10;99.90;;;;;;5029794;28;20084;-76
2022/11/11 08:39:41;;;;;;;10.50;7.72;;;6.10;99.90;;;;;;5023233;28;20434;-74
2022/11/11 08:42:07;;;;;;;13.90;7.65;;;6.10;99.90;;;;;;5013673;28;20084;-74
2022/11/11 08:44:32;;;;;;;10.85;7.45;;;6.10;99.90;;;;;;5028758;28;20021;-74
2022/11/11 08:47:01;;;;;;;12.75;7.00;;;6.20;99.90;;;;;;5028725;28;20116;-74
2022/11/11 08:49:27;;;;;;;12.68;8.35;;;6.30;99.90;;;;;;5021819;28;20022;-75
2022/11/11 08:51:52;;;;;;;12.85;7.65;;;6.30;99.90;;;;;;5030472;28;20103;-74
2022/11/11 08:54:21;;;;;;;14.73;6.90;;;6.30;99.90;;;;;;5032415;28;20542;-73
2022/11/11 08:56:46;;;;;;;12.88;7.18;;;6.30;99.90;;;;;;5031806;28;20029;-74
2022/11/11 08:59:15;;;;;;;17.27;7.93;;;6.40;99.90;;;;;;5030114;28;20029;-74
2022/11/11 09:01:41;;;;;;;10.90;7.35;;;6.40;99.90;;;;;;5026771;28;20034;-74
2022/11/11 09:04:12;;;;;;;12.98;7.38;;;6.50;99.90;;;;;;5023115;28;20029;-73
2022/11/11 09:06:44;;;;;;;12.57;7.40;;;6.50;99.90;;;;;;5027280;28;20022;-73
2022/11/11 09:09:19;;;;;;;15.00;6.63;;;6.60;99.90;;;;;;5026983;28;20033;-73
2022/11/11 09:11:44;;;;;;;9.55;6.43;;;6.60;99.90;;;;;;5025920;28;20490;-74
2022/11/11 09:14:10;;;;;;;12.10;6.25;;;6.60;99.90;;;;;;5024826;28;20029;-73
2022/11/11 09:16:39;;;;;;;12.55;6.53;;;6.60;99.90;;;;;;5030375;28;20071;-74
2022/11/11 09:19:04;;;;;;;14.63;8.13;;;6.70;99.90;;;;;;5028509;28;20034;-73
2022/11/11 09:21:33;;;;;;;17.23;7.30;;;6.70;99.90;;;;;;5032528;28;20103;-73
2022/11/11 09:23:59;;;;;;;12.50;6.65;;;6.70;99.90;;;;;;5029346;28;20041;-73
2022/11/11 09:26:25;;;;;;;11.45;7.07;;;6.70;99.90;;;;;;5025871;28;20029;-74
2022/11/11 09:28:50;;;;;;;11.18;7.13;;;6.70;99.90;;;;;;5029485;28;20022;-73
2022/11/11 09:31:22;;;;;;;12.02;7.13;;;6.70;99.90;;;;;;5029493;28;20057;-74
2022/11/11 09:34:00;;;;;;;12.50;6.55;;;6.80;99.90;;;;;;5018910;28;20132;-74
2022/11/11 09:36:25;;;;;;;11.30;6.68;;;6.80;99.90;;;;;;5020876;28;20422;-74
2022/11/11 09:38:54;;;;;;;15.20;6.93;;;6.90;99.90;;;;;;5022133;28;20014;-74
2022/11/11 09:41:47;;;;;;;11.63;6.25;;;7.00;99.90;;;;;;5030845;28;20073;-74
2022/11/11 09:44:51;;;;;;;14.77;8.18;;;7.10;99.90;;;;;;5023405;28;20029;-74
2022/11/11 09:47:28;;;;;;;20.38;8.25;;;7.10;99.90;;;;;;5028395;28;20390;-74
2022/11/11 09:50:01;;;;;;;17.10;8.43;;;7.10;99.90;;;;;;5026241;28;20021;-74
2022/11/11 09:52:26;;;;;;;12.95;7.50;;;7.20;99.90;;;;;;5025425;28;20029;-75
2022/11/11 09:55:01;;;;;;;11.32;7.22;;;7.20;99.90;;;;;;5023470;28;20029;-74
2022/11/11 09:57:48;;;;;;;13.43;6.50;;;7.30;99.90;;;;;;5028108;28;20483;-74
2022/11/11 10:00:20;;;;;;;13.98;7.32;;;7.30;99.90;;;;;;5028746;28;20086;-73
2022/11/11 10:02:51;;;;;;;10.45;6.30;;;7.40;99.90;;;;;;5027603;28;20025;-74
2022/11/11 10:05:46;;;;;;;12.63;6.80;;;7.50;99.90;;;;;;5024995;28;20029;-74
2022/11/11 10:08:35;;;;;;;11.52;5.72;;;7.60;99.90;;;;;;5026008;28;20056;-74
2022/11/11 10:11:04;;;;;;;10.00;6.05;;;7.70;99.90;;;;;;5015975;28;20467;-74
2022/11/11 10:13:35;;;;;;;13.70;6.18;;;7.80;99.90;;;;;;5026233;28;20021;-74
2022/11/11 10:16:09;;;;;;;8.27;5.45;;;7.80;99.90;;;;;;5027180;28;20025;-74
2022/11/11 10:18:56;;;;;;;11.15;5.95;;;8.00;99.90;;;;;;5020037;28;20037;-74
2022/11/11 10:21:48;;;;;;;9.48;5.43;;;8.10;99.90;;;;;;5025500;28;20039;-75
2022/11/11 10:24:33;;;;;;;14.45;5.35;;;8.10;99.90;;;;;;5026262;28;20083;-75
2022/11/11 10:27:19;;;;;;;10.23;5.65;;;8.20;99.90;;;;;;5026976;28;20084;-74
2022/11/11 10:29:45;;;;;;;12.10;5.35;;;8.30;99.90;;;;;;5023796;28;20037;-74
2022/11/11 10:32:38;;;;;;;11.88;5.65;;;8.30;99.90;;;;;;5028690;28;20220;-75
2022/11/11 10:35:21;;;;;;;10.57;6.10;;;8.40;99.90;;;;;;5025517;28;20057;-74
2022/11/11 10:38:14;;;;;;;9.63;6.25;;;8.40;99.90;;;;;;5023721;28;20286;-74
2022/11/11 10:40:47;;;;;;;8.25;5.13;;;8.50;99.90;;;;;;5011408;28;20048;-74
2022/11/11 10:43:29;;;;;;;12.75;6.60;;;8.50;99.90;;;;;;5021899;28;20147;-74
2022/11/11 10:46:15;;;;;;;12.05;5.57;;;8.60;99.90;;;;;;5023044;28;20026;-75
2022/11/11 10:48:56;;;;;;;7.72;5.15;;;8.70;99.90;;;;;;5031009;28;20056;-75
2022/11/11 10:51:29;;;;;;;8.88;5.50;;;8.70;99.90;;;;;;5027750;28;20390;-73
2022/11/11 10:54:08;;;;;;;8.52;5.57;;;8.80;99.90;;;;;;5027398;28;20033;-74
2022/11/11 10:56:44;;;;;;;8.00;4.70;;;8.80;99.90;;;;;;5026039;28;20061;-74
2022/11/11 10:59:25;;;;;;;6.82;4.40;;;8.80;99.90;;;;;;5022861;28;20045;-75
2022/11/11 11:02:12;;;;;;;9.57;4.30;;;8.90;99.90;;;;;;5020825;28;20398;-74
2022/11/11 11:04:53;;;;;;;9.27;4.70;;;8.90;99.90;;;;;;5028006;28;20068;-74
2022/11/11 11:07:45;;;;;;;9.70;4.82;;;9.00;99.90;;;;;;5034478;28;20033;-74
2022/11/11 11:10:25;;;;;;;13.27;6.82;;;9.10;99.90;;;;;;5032535;28;20493;-74
2022/11/11 11:13:17;;;;;;;13.35;5.72;;;9.10;99.90;;;;;;5029922;28;20033;-74
2022/11/11 11:15:55;;;;;;;16.13;5.90;;;9.20;99.90;;;;;;5028919;28;20543;-73
2022/11/11 11:18:24;;;;;;;11.07;5.85;;;9.20;99.90;;;;;;5029099;28;20034;-73
2022/11/11 11:21:06;;;;;;;9.13;4.78;;;9.30;99.90;;;;;;5030874;28;20022;-74
2022/11/11 11:23:47;;;;;;;10.15;5.13;;;9.30;99.90;;;;;;5024963;28;20486;-74
2022/11/11 11:26:14;;;;;;;8.45;5.30;;;9.40;99.90;;;;;;5023913;28;20072;-74
2022/11/11 11:29:00;;;;;;;8.25;4.68;;;9.40;99.90;;;;;;5028101;28;20440;-74
2022/11/11 11:31:46;;;;;;;8.10;5.03;;;9.50;99.90;;;;;;5027093;28;20021;-74
2022/11/11 11:34:14;;;;;;;7.68;4.43;;;9.50;99.90;;;;;;5029893;28;20030;-74
2022/11/11 11:36:40;;;;;;;34.30;23.10;;;9.60;99.90;;;;;;5019810;28;20026;-74
2022/11/11 11:39:06;;;;;;;16.75;13.13;;;9.60;99.90;;;;;;5022935;28;20026;-75
2022/11/11 11:41:43;;;;;;;16.48;10.73;;;9.60;99.90;;;;;;5034118;28;20440;-74
2022/11/11 11:44:25;;;;;;;12.43;6.22;;;9.60;99.90;;;;;;5026774;28;20564;-75
2022/11/11 11:46:57;;;;;;;12.40;5.55;;;9.60;99.90;;;;;;5031979;28;20030;-74
2022/11/11 11:50:10;;;;;;;10.23;5.22;;;9.70;99.90;;;;;;5031579;28;20498;-74
2022/11/11 11:52:41;;;;;;;11.98;7.20;;;9.60;99.90;;;;;;5029357;28;20040;-75
2022/11/11 11:55:21;;;;;;;9.40;5.63;;;9.70;99.90;;;;;;5023895;28;20125;-75
2022/11/11 11:58:34;;;;;;;7.03;4.72;;;9.70;99.90;;;;;;5028662;28;20387;-75
2022/11/11 12:01:15;;;;;;;8.13;4.78;;;9.70;99.90;;;;;;5027841;28;20029;-75
2022/11/11 12:03:58;;;;;;;19.05;5.43;;;9.70;99.90;;;;;;5028154;28;20117;-74
2022/11/11 12:07:01;;;;;;;18.27;6.45;;;9.70;99.90;;;;;;5026749;28;20108;-75
2022/11/11 12:09:53;;;;;;;9.40;5.05;;;9.70;99.90;;;;;;5021918;28;20029;-75
2022/11/11 12:13:02;;;;;;;11.90;6.13;;;9.80;99.90;;;;;;5024345;28;20442;-75
2022/11/11 12:15:50;;;;;;;11.45;6.25;;;9.80;99.90;;;;;;5027552;28;20034;-75
2022/11/11 12:19:03;;;;;;;7.78;5.07;;;9.90;99.90;;;;;;5020285;28;20092;-75
2022/11/11 12:21:42;;;;;;;9.60;4.68;;;10.00;99.90;;;;;;5011348;28;20477;-75
2022/11/11 12:24:21;;;;;;;8.43;4.95;;;10.00;99.90;;;;;;5018488;28;20036;-75
2022/11/11 12:27:11;;;;;;;9.52;5.10;;;10.10;99.90;;;;;;5029372;28;20486;-74
2022/11/11 12:29:47;;;;;;;9.00;4.95;;;10.10;99.90;;;;;;5020767;28;20401;-74
2022/11/11 12:32:40;;;;;;;9.02;5.15;;;10.20;99.90;;;;;;5024605;28;20602;-74
2022/11/11 12:35:51;;;;;;;11.40;4.97;;;10.20;99.90;;;;;;5021834;28;20025;-74
2022/11/11 12:38:44;;;;;;;8.13;5.10;;;10.30;99.90;;;;;;5024429;28;20259;-74
2022/11/11 12:41:16;;;;;;;8.38;5.20;;;10.40;99.90;;;;;;5017273;28;20061;-74
2022/11/11 12:43:53;;;;;;;10.13;5.07;;;10.50;99.90;;;;;;5023669;28;20533;-74
2022/11/11 12:46:49;;;;;;;8.75;5.53;;;10.50;99.90;;;;;;5012658;28;20030;-75
2022/11/11 12:49:45;;;;;;;8.88;4.70;;;10.50;99.90;;;;;;5012697;28;20026;-74
2022/11/11 12:52:35;;;;;;;12.75;5.43;;;10.50;99.90;;;;;;5025548;28;20075;-74
2022/11/11 12:55:42;;;;;;;9.18;4.65;;;10.60;99.90;;;;;;5027107;28;20394;-76
2022/11/11 12:58:28;;;;;;;9.07;4.60;;;10.70;99.90;;;;;;5026526;28;20037;-74
2022/11/11 13:01:34;;;;;;;14.18;5.45;;;10.70;99.90;;;;;;5027336;28;20025;-74
2022/11/11 13:04:43;;;;;;;10.13;4.88;;;10.70;99.90;;;;;;5019035;28;20041;-74
2022/11/11 13:07:27;;;;;;;8.15;5.07;;;10.70;99.90;;;;;;5015577;28;20491;-74
2022/11/11 13:10:14;;;;;;;7.68;4.60;;;10.80;99.90;;;;;;5030250;28;20108;-74
2022/11/11 13:12:56;;;;;;;6.22;4.00;;;10.80;99.90;;;;;;5026718;28;20433;-74
2022/11/11 13:15:26;;;;;;;6.55;3.97;;;10.80;99.90;;;;;;5023025;28;20040;-74
2022/11/11 13:17:52;;;;;;;9.95;5.75;;;10.90;99.90;;;;;;5027599;28;20390;-74
2022/11/11 13:20:36;;;;;;;17.08;14.02;;;10.90;99.90;;;;;;5052349;23;20042;-77
2022/11/11 13:23:12;;;;;;;23.27;19.48;;;10.90;99.90;;;;;;5031222;28;20381;-78
2022/11/11 13:25:45;;;;;;;8.10;3.70;;;11.00;99.90;;;;;;5035922;28;20028;-78
2022/11/11 13:28:35;;;;;;;7.22;3.03;;;11.00;99.90;;;;;;5033667;28;20035;-78
2022/11/11 13:31:15;;;;;;;7.05;3.38;;;11.00;99.90;;;;;;5014012;28;20022;-78
2022/11/11 13:33:45;;;;;;;6.85;2.90;;;11.10;99.90;;;;;;5012512;28;20160;-77
2022/11/11 13:36:21;;;;;;;5.03;3.70;;;11.00;99.90;;;;;;5007577;28;20033;-77
2022/11/11 13:39:00;;;;;;;7.75;3.88;;;11.10;99.90;;;;;;5006618;28;20157;-76
2022/11/11 13:41:37;;;;;;;8.25;3.75;;;11.10;99.90;;;;;;5006512;28;20040;-77
2022/11/11 13:44:08;;;;;;;7.00;3.15;;;11.00;99.90;;;;;;5006927;28;20037;-76
2022/11/11 13:46:47;;;;;;;10.35;4.07;;;11.10;99.90;;;;;;5009843;28;20506;-77
2022/11/11 13:49:39;;;;;;;7.78;4.80;;;11.10;99.90;;;;;;5005686;28;20022;-76
2022/11/11 13:52:26;;;;;;;7.95;3.83;;;11.00;99.90;;;;;;5008853;28;20029;-77
2022/11/11 13:55:26;;;;;;;6.45;3.70;;;11.10;99.90;;;;;;5007876;28;20034;-77
2022/11/11 13:57:52;;;;;;;6.18;3.63;;;11.10;99.90;;;;;;5006249;28;20030;-77
2022/11/11 14:00:17;;;;;;;8.70;3.78;;;11.00;99.90;;;;;;5009760;28;20021;-76
2022/11/11 14:02:46;;;;;;;7.30;3.67;;;11.00;99.90;;;;;;5014448;28;20030;-76
2022/11/11 14:05:16;;;;;;;5.80;3.38;;;11.00;99.90;;;;;;5010666;28;20030;-76
2022/11/11 14:07:52;;;;;;;6.35;3.92;;;10.90;99.90;;;;;;5011998;28;20037;-76
2022/11/11 14:10:32;;;;;;;6.43;3.60;;;10.90;99.90;;;;;;5007794;28;20049;-76
2022/11/11 14:13:23;;;;;;;6.80;3.75;;;10.90;99.90;;;;;;5010650;28;20612;-76
2022/11/11 14:15:51;;;;;;;7.68;3.05;;;10.90;99.90;;;;;;5009977;28;20033;-75
2022/11/11 14:18:17;;;;;;;6.70;3.42;;;11.00;99.90;;;;;;5008775;28;20025;-76
2022/11/11 14:20:54;;;;;;;7.93;3.67;;;10.90;99.90;;;;;;5008759;28;20052;-76
2022/11/11 14:23:32;;;;;;;8.02;4.05;;;10.90;99.90;;;;;;5010835;28;20042;-75
2022/11/11 14:26:08;;;;;;;8.25;4.03;;;11.00;99.90;;;;;;5013893;28;20478;-77
2022/11/11 14:28:59;;;;;;;7.90;4.13;;;11.00;99.90;;;;;;5005888;28;20104;-76
2022/11/11 14:32:04;;;;;;;6.97;3.60;;;11.00;99.90;;;;;;5006622;28;20379;-76
2022/11/11 14:34:57;;;;;;;6.75;4.32;;;11.00;99.90;;;;;;4978418;28;20104;-76
2022/11/11 14:38:04;;;;;;;7.93;3.92;;;10.90;99.90;;;;;;5012762;28;20088;-76